createdAt,value
2023-02-06T00:00:52.359Z,69.56
2023-02-06T00:03:40.895Z,69.85
2023-02-06T00:06:24.244Z,69.72
2023-02-06T00:09:07.955Z,69.57
2023-02-06T00:11:51.254Z,70.65
2023-02-06T00:14:35.923Z,70.26
2023-02-06T00:17:19.015Z,70.87
2023-02-06T00:20:02.405Z,70.70
2023-02-06T00:22:45.780Z,71.18
2023-02-06T00:25:28.996Z,70.94
2023-02-06T00:28:12.261Z,71.78
2023-02-06T00:30:59.112Z,71.29
2023-02-06T00:33:45.418Z,70.56
2023-02-06T00:36:28.543Z,70.34
2023-02-06T00:39:11.724Z,70.59
2023-02-06T00:41:55.853Z,70.05
2023-02-06T00:44:38.947Z,71.61
2023-02-06T00:47:23.386Z,71.21
2023-02-06T00:50:07.392Z,71.90
2023-02-06T00:52:50.770Z,71.38
2023-02-06T00:55:34.045Z,70.71
2023-02-06T00:58:19.730Z,70.86
2023-02-06T01:01:05.651Z,70.45
2023-02-06T01:03:52.937Z,70.39
2023-02-06T01:06:36.031Z,70.18
2023-02-06T01:09:22.566Z,70.87
2023-02-06T01:12:06.247Z,71.46
2023-02-06T01:14:52.086Z,70.65
2023-02-06T01:17:37.793Z,71.62
2023-02-06T01:20:23.951Z,71.54
2023-02-06T01:23:07.144Z,71.73
2023-02-06T01:25:50.265Z,72.03
2023-02-06T01:28:33.480Z,72.14
2023-02-06T01:31:20.396Z,71.57
2023-02-06T01:34:06.161Z,70.44
2023-02-06T01:36:50.624Z,69.28
2023-02-06T01:39:33.652Z,70.84
2023-02-06T01:42:16.885Z,70.22
2023-02-06T01:45:28.580Z,68.92
2023-02-06T01:48:16.428Z,69.20
2023-02-06T01:51:01.527Z,69.16
2023-02-06T01:53:50.737Z,68.95
2023-02-06T01:56:38.086Z,68.06
2023-02-06T01:59:21.948Z,68.56
2023-02-06T02:02:05.377Z,66.72
2023-02-06T02:04:49.856Z,65.67
2023-02-06T02:07:37.397Z,66.04
2023-02-06T02:10:22.315Z,66.95
2023-02-06T02:13:05.559Z,67.86
2023-02-06T02:16:00.814Z,65.96
2023-02-06T02:19:00.966Z,65.74
2023-02-06T02:22:32.636Z,63.47
2023-02-06T02:25:58.339Z,63.54
2023-02-06T02:29:12.484Z,64.34
2023-02-06T02:32:31.116Z,65.03
2023-02-06T02:35:45.349Z,63.12
2023-02-06T02:38:40.737Z,62.49
2023-02-06T02:41:33.818Z,60.01
2023-02-06T02:44:26.423Z,60.51
2023-02-06T02:47:14.648Z,58.33
2023-02-06T02:50:02.565Z,57.40
2023-02-06T02:52:55.102Z,57.57
2023-02-06T02:55:38.450Z,58.73
2023-02-06T02:58:26.686Z,57.73
2023-02-06T03:01:15.112Z,58.12
2023-02-06T03:04:04.860Z,58.99
2023-02-06T03:07:09.043Z,57.17
2023-02-06T03:10:06.724Z,55.52
2023-02-06T03:12:53.877Z,55.39
2023-02-06T03:15:51.379Z,55.67
2023-02-06T03:18:44.105Z,57.86
2023-02-06T03:21:29.196Z,59.00
2023-02-06T03:24:17.121Z,58.11
2023-02-06T03:27:04.864Z,57.29
2023-02-06T03:29:53.328Z,56.27
2023-02-06T03:32:41.544Z,55.97
2023-02-06T03:35:30.959Z,56.96
2023-02-06T03:38:15.212Z,56.40
2023-02-06T03:41:02.397Z,55.45
2023-02-06T03:43:49.788Z,55.25
2023-02-06T03:46:35.447Z,56.10
2023-02-06T03:49:20.947Z,54.70
2023-02-06T03:52:07.625Z,55.30
2023-02-06T03:54:54.760Z,55.47
2023-02-06T03:57:39.238Z,54.76
2023-02-06T04:00:24.709Z,54.77
2023-02-06T04:03:09.511Z,55.96
2023-02-06T04:05:52.913Z,56.13
2023-02-06T04:08:35.934Z,54.79
2023-02-06T04:11:21.387Z,54.92
2023-02-06T04:14:04.466Z,54.40
2023-02-06T04:16:48.930Z,54.27
2023-02-06T04:19:34.614Z,56.32
2023-02-06T04:22:18.113Z,55.48
2023-02-06T04:25:01.450Z,54.39
2023-02-06T04:27:47.751Z,53.55
2023-02-06T04:30:31.132Z,54.56
2023-02-06T04:33:16.921Z,54.55
2023-02-06T04:35:59.973Z,53.77
2023-02-06T04:38:43.058Z,54.32
2023-02-06T04:41:26.312Z,55.40
2023-02-06T04:44:10.981Z,54.39
2023-02-06T04:46:54.055Z,54.63
2023-02-06T04:49:38.524Z,55.96
2023-02-06T04:52:21.634Z,57.17
2023-02-06T04:55:08.362Z,57.91
2023-02-06T04:57:52.527Z,57.17
2023-02-06T05:00:37.348Z,57.34
2023-02-06T05:03:23.786Z,56.68
2023-02-06T05:06:08.775Z,58.87
2023-02-06T05:08:52.134Z,59.70
2023-02-06T05:11:37.203Z,58.56
2023-02-06T05:14:20.248Z,59.81
2023-02-06T05:17:08.479Z,60.05
2023-02-06T05:19:56.809Z,61.33
2023-02-06T05:22:46.560Z,61.99
2023-02-06T05:25:31.043Z,62.20
2023-02-06T05:28:19.718Z,62.01
2023-02-06T05:31:03.809Z,62.37
2023-02-06T05:33:48.951Z,62.68
2023-02-06T05:36:33.077Z,62.32
2023-02-06T05:39:17.601Z,62.85
2023-02-06T05:42:00.712Z,61.36
2023-02-06T05:44:44.547Z,62.46
2023-02-06T05:47:27.708Z,59.52
2023-02-06T05:50:15.298Z,61.17
2023-02-06T05:52:58.397Z,60.91
2023-02-06T05:55:43.158Z,60.55
2023-02-06T05:58:28.314Z,59.73
2023-02-06T06:01:15.171Z,61.25
2023-02-06T06:03:58.325Z,58.87
2023-02-06T06:06:42.025Z,58.84
2023-02-06T06:09:25.334Z,59.25
2023-02-06T06:12:09.898Z,58.99
2023-02-06T06:14:53.219Z,59.04
2023-02-06T06:17:36.345Z,57.79
2023-02-06T06:20:27.960Z,58.13
2023-02-06T06:23:10.985Z,56.76
2023-02-06T06:25:54.320Z,55.01
2023-02-06T06:28:39.943Z,56.37
2023-02-06T06:31:23.888Z,55.80
2023-02-06T06:34:07.253Z,54.51
2023-02-06T06:36:50.394Z,51.45
2023-02-06T06:39:33.941Z,52.30
2023-02-06T06:42:19.487Z,52.80
2023-02-06T06:45:04.006Z,52.15
2023-02-06T06:47:47.050Z,50.22
2023-02-06T06:50:30.163Z,48.90
2023-02-06T06:53:13.610Z,46.52
2023-02-06T06:55:57.720Z,40.99
2023-02-06T06:58:41.042Z,38.53
2023-02-06T07:01:31.781Z,38.14
2023-02-06T07:04:15.202Z,38.50
2023-02-06T07:07:01.201Z,39.63
2023-02-06T07:09:44.545Z,39.94
2023-02-06T07:12:27.904Z,40.38
2023-02-06T07:15:14.780Z,39.15
2023-02-06T07:17:59.290Z,40.18
2023-02-06T07:20:42.294Z,38.81
2023-02-06T07:23:25.635Z,39.57
2023-02-06T07:26:09.329Z,39.34
2023-02-06T07:28:53.112Z,39.70
2023-02-06T07:31:38.857Z,39.27
2023-02-06T07:34:23.535Z,40.09
2023-02-06T07:37:08.609Z,39.41
2023-02-06T07:39:51.645Z,40.26
2023-02-06T07:42:34.787Z,40.13
2023-02-06T07:45:21.761Z,37.58
2023-02-06T07:48:05.179Z,35.14
2023-02-06T07:50:49.677Z,31.75
2023-02-06T07:53:34.986Z,26.50
2023-02-06T07:56:21.551Z,20.91
2023-02-06T07:59:06.417Z,20.46
2023-02-06T08:01:49.522Z,20.04
2023-02-06T08:04:35.358Z,19.66
2023-02-06T08:07:19.970Z,17.82
2023-02-06T08:10:04.879Z,16.68
2023-02-06T08:12:48.203Z,15.27
2023-02-06T08:15:31.314Z,13.05
2023-02-06T08:18:14.704Z,13.66
2023-02-06T08:21:02.365Z,12.29
2023-02-06T08:23:49.667Z,12.75
2023-02-06T08:26:33.201Z,12.13
2023-02-06T08:29:16.250Z,12.26
2023-02-06T08:31:59.336Z,11.62
2023-02-06T08:34:42.766Z,12.30
2023-02-06T08:37:25.933Z,13.47
2023-02-06T08:40:14.169Z,12.96
2023-02-06T08:42:58.634Z,14.48
2023-02-06T08:45:41.657Z,13.51
2023-02-06T08:48:24.782Z,13.77
2023-02-06T08:51:09.372Z,14.75
2023-02-06T08:53:52.448Z,14.95
2023-02-06T08:56:41.303Z,17.35
2023-02-06T08:59:24.760Z,14.51
2023-02-06T09:02:08.701Z,14.12
2023-02-06T09:04:51.856Z,16.28
2023-02-06T09:07:37.557Z,16.93
2023-02-06T09:10:28.038Z,16.98
2023-02-06T09:13:13.476Z,15.48
2023-02-06T09:15:56.722Z,16.66
2023-02-06T09:18:40.578Z,14.66
2023-02-06T09:21:27.609Z,15.52
2023-02-06T09:24:11.646Z,15.21
2023-02-06T09:26:59.720Z,13.94
2023-02-06T09:29:44.595Z,13.89
2023-02-06T09:32:27.663Z,11.94
2023-02-06T09:35:10.888Z,11.02
2023-02-06T09:37:53.969Z,11.52
2023-02-06T09:40:38.511Z,12.14
2023-02-06T09:43:22.794Z,12.44
2023-02-06T09:46:15.999Z,14.34
2023-02-06T09:49:03.655Z,18.75
2023-02-06T09:52:14.978Z,20.71
2023-02-06T09:55:08.699Z,24.77
2023-02-06T09:58:02.167Z,23.64
2023-02-06T10:00:50.770Z,27.07
2023-02-06T10:04:03.091Z,27.23
2023-02-06T10:06:55.303Z,27.94
2023-02-06T10:09:43.033Z,27.66
2023-02-06T10:12:33.728Z,29.72
2023-02-06T10:15:33.900Z,27.41
2023-02-06T10:18:23.158Z,23.90
2023-02-06T10:21:26.206Z,25.09
2023-02-06T10:24:14.869Z,28.83
2023-02-06T10:27:03.153Z,28.94
2023-02-06T10:29:49.131Z,29.84
2023-02-06T10:32:50.237Z,25.70
2023-02-06T10:35:49.476Z,23.30
2023-02-06T10:38:58.259Z,18.88
2023-02-06T10:41:51.605Z,21.29
2023-02-06T10:44:52.974Z,18.72
2023-02-06T10:47:50.596Z,20.90
2023-02-06T10:50:39.402Z,21.78
2023-02-06T10:53:27.784Z,22.23
2023-02-06T10:56:15.043Z,22.42
2023-02-06T10:59:01.401Z,17.94
2023-02-06T11:01:48.591Z,16.27
2023-02-06T11:04:37.144Z,14.10
2023-02-06T11:07:27.096Z,13.60
2023-02-06T11:10:15.727Z,12.56
2023-02-06T11:13:06.986Z,12.75
2023-02-06T11:15:57.517Z,12.60
2023-02-06T11:18:43.590Z,14.54
2023-02-06T11:21:54.993Z,12.54
2023-02-06T11:24:42.289Z,10.15
2023-02-06T11:27:27.818Z,10.48
2023-02-06T11:30:30.769Z,10.21
2023-02-06T11:33:22.552Z,10.00
2023-02-06T11:36:08.587Z,9.50
2023-02-06T11:39:00.946Z,10.74
2023-02-06T11:42:00.136Z,11.13
2023-02-06T11:44:46.239Z,10.99
2023-02-06T11:47:33.191Z,10.32
2023-02-06T11:50:24.984Z,11.51
2023-02-06T11:53:12.383Z,10.41
2023-02-06T11:56:18.221Z,11.31
2023-02-06T11:59:07.100Z,11.86
2023-02-06T12:01:53.380Z,14.77
2023-02-06T12:04:40.801Z,16.56
2023-02-06T12:07:31.144Z,19.91
2023-02-06T12:10:16.327Z,21.92
2023-02-06T12:13:10.701Z,23.93
2023-02-06T12:15:57.817Z,24.89
2023-02-06T12:18:46.250Z,29.20
2023-02-06T12:21:45.803Z,28.82
2023-02-06T12:24:32.759Z,29.54
2023-02-06T12:27:22.199Z,32.20
2023-02-06T12:30:24.662Z,31.22
2023-02-06T12:33:23.042Z,33.12
2023-02-06T12:36:12.501Z,36.01
2023-02-06T12:39:01.214Z,35.83
2023-02-06T12:42:04.316Z,35.05
2023-02-06T12:44:52.654Z,36.70
2023-02-06T12:47:40.823Z,36.66
2023-02-06T12:50:28.423Z,34.97
2023-02-06T12:53:17.818Z,36.04
2023-02-06T12:56:10.410Z,35.52
2023-02-06T12:59:03.664Z,34.87
2023-02-06T13:01:55.570Z,37.12
2023-02-06T13:04:39.167Z,36.07
2023-02-06T13:07:26.425Z,36.83
2023-02-06T13:10:18.009Z,37.30
2023-02-06T13:13:03.255Z,36.56
2023-02-06T13:15:55.030Z,37.95
2023-02-06T13:18:54.217Z,39.33
2023-02-06T13:21:37.573Z,37.61
2023-02-06T13:24:22.000Z,38.60
2023-02-06T13:27:13.722Z,39.62
2023-02-06T13:30:19.482Z,36.60
2023-02-06T13:33:15.199Z,38.28
2023-02-06T13:36:00.296Z,38.81
2023-02-06T13:38:43.792Z,38.23
2023-02-06T13:41:31.871Z,39.43
2023-02-06T13:44:20.063Z,39.71
2023-02-06T13:47:34.946Z,40.15
2023-02-06T13:50:40.776Z,42.04
2023-02-06T13:53:44.341Z,40.59
2023-02-06T13:56:43.589Z,41.00
2023-02-06T13:59:30.929Z,40.54
2023-02-06T14:02:17.936Z,42.67
2023-02-06T14:05:04.622Z,42.43
2023-02-06T14:08:09.640Z,43.79
2023-02-06T14:11:19.307Z,42.10
2023-02-06T14:14:31.822Z,40.58
2023-02-06T14:17:30.125Z,42.79
2023-02-06T14:20:31.818Z,42.01
2023-02-06T14:23:26.774Z,43.01
2023-02-06T14:26:26.119Z,44.09
2023-02-06T14:29:20.538Z,43.67
2023-02-06T14:32:22.920Z,43.09
2023-02-06T14:35:33.497Z,44.00
2023-02-06T14:38:41.251Z,44.50
2023-02-06T14:41:28.405Z,43.41
2023-02-06T14:44:17.727Z,45.20
2023-02-06T14:47:03.404Z,45.69
2023-02-06T14:49:47.883Z,45.85
2023-02-06T14:52:33.474Z,44.25
2023-02-06T14:55:30.726Z,43.65
2023-02-06T14:58:22.987Z,44.84
2023-02-06T15:01:16.121Z,44.26
2023-02-06T15:04:11.229Z,45.83
2023-02-06T15:06:57.325Z,45.81
2023-02-06T15:09:46.572Z,45.75
2023-02-06T15:12:32.230Z,46.47
2023-02-06T15:15:18.744Z,48.63
2023-02-06T15:18:04.775Z,48.21
2023-02-06T15:20:56.321Z,47.60
2023-02-06T15:23:51.600Z,49.00
2023-02-06T15:26:44.222Z,51.08
2023-02-06T15:29:28.902Z,49.77
2023-02-06T15:32:24.705Z,50.01
2023-02-06T15:35:21.255Z,50.73
2023-02-06T15:38:08.483Z,51.08
2023-02-06T15:40:59.446Z,52.28
2023-02-06T15:43:46.970Z,51.07
2023-02-06T15:46:32.118Z,50.30
2023-02-06T15:49:19.994Z,51.80
2023-02-06T15:52:03.239Z,50.15
2023-02-06T15:54:58.963Z,50.97
2023-02-06T15:57:45.073Z,51.20
2023-02-06T16:00:33.837Z,51.62
2023-02-06T16:03:19.954Z,52.53
2023-02-06T16:06:11.803Z,52.00
2023-02-06T16:09:00.352Z,52.21
2023-02-06T16:11:53.472Z,52.79
2023-02-06T16:14:39.136Z,51.55
2023-02-06T16:17:33.810Z,54.33
2023-02-06T16:20:42.835Z,53.12
2023-02-06T16:23:29.014Z,52.18
2023-02-06T16:26:17.886Z,51.16
2023-02-06T16:29:06.275Z,50.85
2023-02-06T16:32:00.198Z,50.63
2023-02-06T16:34:45.829Z,50.77
2023-02-06T16:37:32.123Z,50.89
2023-02-06T16:40:17.030Z,51.04
2023-02-06T16:43:00.063Z,51.17
2023-02-06T16:45:43.750Z,48.70
2023-02-06T16:48:26.901Z,51.70
2023-02-06T16:51:15.854Z,50.88
2023-02-06T16:53:59.670Z,50.25
2023-02-06T16:56:43.968Z,50.29
2023-02-06T16:59:27.342Z,50.67
2023-02-06T17:02:13.629Z,50.66
2023-02-06T17:04:57.848Z,50.07
2023-02-06T17:07:43.629Z,50.08
2023-02-06T17:10:29.217Z,51.40
2023-02-06T17:13:17.902Z,51.32
2023-02-06T17:16:02.574Z,51.61
2023-02-06T17:18:45.904Z,50.27
2023-02-06T17:21:32.743Z,51.23
2023-02-06T17:24:17.346Z,50.51
2023-02-06T17:27:06.592Z,50.35
2023-02-06T17:29:51.249Z,50.79
2023-02-06T17:32:34.379Z,50.52
2023-02-06T17:35:19.310Z,51.94
2023-02-06T17:38:08.881Z,50.19
2023-02-06T17:40:59.727Z,50.56
2023-02-06T17:43:43.363Z,49.77
2023-02-06T17:46:26.805Z,50.67
2023-02-06T17:49:11.088Z,50.42
2023-02-06T17:51:55.889Z,49.19
2023-02-06T17:54:39.242Z,50.39
2023-02-06T17:57:23.759Z,50.34
2023-02-06T18:00:10.254Z,50.46
2023-02-06T18:02:57.144Z,49.94
2023-02-06T18:05:41.665Z,49.65
2023-02-06T18:08:24.823Z,50.66
2023-02-06T18:11:12.570Z,49.46
2023-02-06T18:13:59.116Z,50.73
2023-02-06T18:16:46.776Z,51.04
2023-02-06T18:19:32.125Z,49.46
2023-02-06T18:22:18.508Z,49.48
2023-02-06T18:25:05.615Z,50.25
2023-02-06T18:27:48.811Z,49.06
2023-02-06T18:30:37.823Z,49.53
2023-02-06T18:33:23.670Z,49.27
2023-02-06T18:36:07.759Z,48.72
2023-02-06T18:38:51.887Z,49.61
2023-02-06T18:41:54.742Z,49.06
2023-02-06T18:44:42.018Z,49.21
2023-02-06T18:47:26.519Z,50.53
2023-02-06T18:50:10.223Z,49.23
2023-02-06T18:52:53.503Z,49.75
2023-02-06T18:55:37.452Z,50.91
2023-02-06T18:58:23.021Z,49.14
2023-02-06T19:01:16.650Z,50.48
2023-02-06T19:04:01.297Z,51.28
2023-02-06T19:06:46.653Z,50.41
2023-02-06T19:09:32.196Z,51.22
2023-02-06T19:12:16.608Z,50.71
2023-02-06T19:15:01.190Z,50.72
2023-02-06T19:17:45.132Z,50.04
2023-02-06T19:20:30.291Z,49.39
2023-02-06T19:23:13.583Z,50.40
2023-02-06T19:25:56.906Z,51.69
2023-02-06T19:28:41.430Z,50.47
2023-02-06T19:31:24.972Z,49.49
2023-02-06T19:34:08.529Z,49.58
2023-02-06T19:36:57.057Z,49.29
2023-02-06T19:39:50.454Z,48.78
2023-02-06T19:42:34.153Z,50.17
2023-02-06T19:45:18.141Z,49.90
2023-02-06T19:48:01.199Z,50.21
2023-02-06T19:50:47.221Z,50.05
2023-02-06T19:53:34.331Z,48.26
2023-02-06T19:56:25.363Z,49.23
2023-02-06T19:59:18.265Z,48.00
2023-02-06T20:02:03.480Z,47.91
2023-02-06T20:04:47.612Z,47.77
2023-02-06T20:07:31.858Z,47.91
2023-02-06T20:10:17.784Z,48.79
2023-02-06T20:13:00.890Z,48.21
2023-02-06T20:15:46.924Z,48.06
2023-02-06T20:18:31.924Z,49.60
2023-02-06T20:21:24.229Z,47.88
2023-02-06T20:24:14.109Z,49.01
2023-02-06T20:27:02.842Z,48.52
2023-02-06T20:29:47.452Z,47.74
2023-02-06T20:32:31.929Z,48.64
2023-02-06T20:35:15.006Z,50.26
2023-02-06T20:38:00.397Z,50.71
2023-02-06T20:40:51.120Z,48.95
2023-02-06T20:43:37.097Z,50.45
2023-02-06T20:46:21.621Z,48.76
2023-02-06T20:49:10.800Z,49.39
2023-02-06T20:51:54.230Z,49.10
2023-02-06T20:54:38.674Z,48.22
2023-02-06T20:57:23.085Z,50.29
2023-02-06T21:00:08.882Z,50.92
2023-02-06T21:02:53.181Z,51.70
2023-02-06T21:05:36.501Z,50.96
2023-02-06T21:08:22.494Z,51.36
2023-02-06T21:11:06.132Z,51.37
2023-02-06T21:13:49.334Z,51.81
2023-02-06T21:16:35.214Z,50.78
2023-02-06T21:19:22.101Z,52.01
2023-02-06T21:22:09.124Z,51.19
2023-02-06T21:24:52.329Z,49.98
2023-02-06T21:27:35.969Z,49.94
2023-02-06T21:30:19.369Z,50.12
2023-02-06T21:33:04.088Z,52.62
2023-02-06T21:35:52.484Z,52.61
2023-02-06T21:38:36.121Z,52.72
2023-02-06T21:41:20.415Z,51.54
2023-02-06T21:44:06.286Z,50.56
2023-02-06T21:46:49.365Z,51.41
2023-02-06T21:49:34.785Z,51.53
2023-02-06T21:52:17.956Z,52.84
2023-02-06T21:55:01.034Z,51.54
2023-02-06T21:57:46.629Z,52.27
2023-02-06T22:00:32.452Z,50.58
2023-02-06T22:03:16.212Z,51.56
2023-02-06T22:06:08.825Z,50.13
2023-02-06T22:08:53.752Z,50.43
2023-02-06T22:11:40.364Z,51.38
2023-02-06T22:14:23.382Z,51.22
2023-02-06T22:17:06.392Z,50.76
2023-02-06T22:19:53.014Z,52.32
2023-02-06T22:22:42.008Z,51.74
2023-02-06T22:25:33.814Z,51.70
2023-02-06T22:28:16.899Z,52.20
2023-02-06T22:31:09.480Z,52.75
2023-02-06T22:33:52.997Z,52.74
2023-02-06T22:36:36.071Z,54.06
2023-02-06T22:39:23.308Z,53.30
2023-02-06T22:42:08.154Z,54.06
2023-02-06T22:44:51.884Z,54.04
2023-02-06T22:47:35.324Z,54.67
2023-02-06T22:50:18.632Z,55.05
2023-02-06T22:53:18.734Z,55.15
2023-02-06T22:56:25.238Z,55.07
2023-02-06T22:59:11.525Z,54.14
2023-02-06T23:01:56.475Z,54.89
2023-02-06T23:04:48.284Z,55.04
2023-02-06T23:07:31.446Z,56.09
2023-02-06T23:10:14.549Z,55.39
2023-02-06T23:12:59.046Z,57.23
2023-02-06T23:15:42.690Z,54.78
2023-02-06T23:18:27.600Z,55.44
2023-02-06T23:21:15.155Z,54.94
2023-02-06T23:23:59.841Z,56.03
2023-02-06T23:26:44.720Z,56.81
2023-02-06T23:29:29.590Z,55.94
2023-02-06T23:32:12.742Z,55.17
2023-02-06T23:34:57.599Z,55.33
2023-02-06T23:37:40.762Z,56.07
2023-02-06T23:40:23.924Z,55.70
2023-02-06T23:43:10.449Z,55.92
2023-02-06T23:45:54.878Z,55.42
2023-02-06T23:48:38.856Z,55.21
2023-02-06T23:51:23.069Z,55.12
2023-02-06T23:54:06.994Z,55.14
2023-02-06T23:56:50.079Z,56.61
2023-02-06T23:59:33.140Z,56.62
